Terminal Aerodrome Forecast
Issued by NWS

Home | Current Version | Previous Version | Text Only | Print | Product List | Glossary Off
Versions: 1 2 3 4 5 6 7 8 9 10 11 12 13 14 15 16 17

318
FTUS43 KABR 200524
TAFMBG
TAF
KMBG 200524Z 2006/2106 13009KT P6SM OVC250
     FM201900 15013KT P6SM BKN120
     FM210200 15009KT P6SM OVC060=

USA.gov is the U.S. government's official web portal to all federal, state and local government web resources and services.